Time;durP1;ratioP1;P1;durP2;ratioP2;P2;SDS_P1;SDS_P2;PMS_P1;PMS_P2;Temp;Humidity;BMP_temperature;BMP_pressure;BME280_temperature;BME280_humidity;BME280_pressure;Samples;Min_cycle;Max_cycle;Signal;HPM_P1;HPM_P2
2021/08/30 00:00:52;;;;;;;20.10;15.37;;;;;;;15.34;100.00;101518.97;5060264;28;20126;-86
2021/08/30 00:03:17;;;;;;;26.90;15.50;;;;;;;15.35;100.00;101519.81;5076153;28;20458;-88
2021/08/30 00:05:43;;;;;;;26.90;15.67;;;;;;;15.37;100.00;101509.72;5059375;28;20060;-87
2021/08/30 00:08:08;;;;;;;25.10;15.57;;;;;;;15.39;100.00;101516.59;5076637;28;20290;-87
2021/08/30 00:10:34;;;;;;;21.60;14.73;;;;;;;15.40;100.00;101514.72;5059698;28;20035;-87
2021/08/30 00:12:59;;;;;;;24.30;14.97;;;;;;;15.42;100.00;101515.41;5059996;28;20119;-88
2021/08/30 00:15:24;;;;;;;20.67;14.07;;;;;;;15.41;100.00;101519.13;5059652;28;20031;-86
2021/08/30 00:17:51;;;;;;;21.07;14.40;;;;;;;15.44;100.00;101513.38;5059717;28;20032;-85
2021/08/30 00:20:18;;;;;;;;;;;;;;;15.49;100.00;101520.91;5059676;28;20044;-86
2021/08/30 00:22:43;;;;;;;20.45;14.07;;;;;;;15.42;100.00;101515.41;5059538;28;19927;-86
2021/08/30 00:25:09;;;;;;;24.40;14.30;;;;;;;15.42;100.00;101512.72;5059586;28;20036;-86
2021/08/30 00:27:34;;;;;;;25.38;14.65;;;;;;;15.44;100.00;101508.00;5060262;28;20492;-84
2021/08/30 00:30:00;;;;;;;23.67;13.97;;;;;;;15.45;100.00;101509.66;5060050;28;20032;-84
2021/08/30 00:32:25;;;;;;;22.80;13.83;;;;;;;15.47;100.00;101507.63;5063514;28;20035;-85
2021/08/30 00:34:51;;;;;;;21.33;14.73;;;;;;;15.47;100.00;101513.00;5063268;28;20051;-86
2021/08/30 00:37:19;;;;;;;22.33;14.73;;;;;;;15.47;100.00;101502.25;5062612;28;20028;-87
2021/08/30 00:39:46;;;;;;;21.52;13.40;;;;;;;15.42;100.00;101499.25;5061984;28;20028;-84
2021/08/30 00:42:12;;;;;;;19.45;13.73;;;;;;;15.43;100.00;101506.31;5063484;28;20096;-86
2021/08/30 00:44:38;;;;;;;21.10;12.98;;;;;;;15.47;100.00;101501.41;5062008;28;20051;-87
2021/08/30 00:47:03;;;;;;;20.63;13.03;;;;;;;15.44;100.00;101507.16;5058834;28;20036;-86
2021/08/30 00:49:29;;;;;;;20.08;13.88;;;;;;;15.43;100.00;101506.31;5055014;28;20036;-86
2021/08/30 00:51:55;;;;;;;25.98;14.40;;;;;;;15.38;100.00;101508.69;5058261;28;20024;-86
2021/08/30 00:54:22;;;;;;;22.65;14.18;;;;;;;15.34;100.00;101513.59;5057834;28;20355;-86
2021/08/30 00:56:48;;;;;;;22.02;15.63;;;;;;;15.30;100.00;101500.66;5057529;28;20044;-87
2021/08/30 00:59:13;;;;;;;29.40;15.65;;;;;;;15.29;100.00;101509.72;5057517;28;20046;-87
2021/08/30 01:01:39;;;;;;;20.33;13.87;;;;;;;15.29;100.00;101507.03;5074185;28;20040;-86
2021/08/30 01:04:11;;;;;;;23.90;15.50;;;;;;;15.32;100.00;101520.16;5057319;28;20035;-86
2021/08/30 01:06:45;;;;;;;22.70;15.13;;;;;;;15.29;100.00;101510.59;5074352;28;20081;-86
2021/08/30 01:09:36;;;;;;;21.60;14.48;;;;;;;15.23;100.00;101515.81;5074364;28;20043;-86
2021/08/30 01:12:21;;;;;;;20.60;14.80;;;;;;;15.16;100.00;101516.50;5074496;28;20114;-87
2021/08/30 01:14:53;;;;;;;28.92;16.17;;;;;;;15.14;100.00;101521.22;5057564;28;20028;-85
2021/08/30 01:17:20;;;;;;;21.83;13.52;;;;;;;15.15;100.00;101522.91;5057343;28;20032;-86
2021/08/30 01:19:56;;;;;;;24.65;15.88;;;;;;;15.05;100.00;101526.81;5057584;28;20020;-87
2021/08/30 01:22:23;;;;;;;24.33;15.20;;;;;;;15.03;100.00;101518.06;5057833;28;20032;-86
2021/08/30 01:24:50;;;;;;;24.63;15.10;;;;;;;14.95;100.00;101508.19;5073796;28;20043;-86
2021/08/30 01:27:16;;;;;;;24.52;15.07;;;;;;;14.92;100.00;101512.06;5092117;28;20020;-86
2021/08/30 01:29:44;;;;;;;;;;;;;;;14.89;100.00;101525.84;5057461;28;20109;-86
2021/08/30 01:32:36;;;;;;;36.42;17.13;;;;;;;14.83;100.00;101514.94;5056038;28;20604;-84
2021/08/30 01:35:05;;;;;;;21.42;14.68;;;;;;;14.75;100.00;101526.56;5057391;28;20036;-86
2021/08/30 01:37:33;;;;;;;30.20;16.10;;;;;;;14.70;100.00;101518.16;5072901;28;20028;-86
2021/08/30 01:40:00;;;;;;;26.45;15.88;;;;;;;14.64;100.00;101524.22;5056722;28;20032;-86
2021/08/30 01:42:27;;;;;;;28.05;17.17;;;;;;;14.63;100.00;101517.16;5056989;28;20036;-86
2021/08/30 01:44:55;;;;;;;22.10;16.33;;;;;;;14.60;100.00;101518.34;5056736;28;20073;-87
2021/08/30 01:47:21;;;;;;;24.52;16.67;;;;;;;14.62;100.00;101519.00;5073098;28;20438;-85
2021/08/30 01:49:52;;;;;;;25.25;16.13;;;;;;;14.56;100.00;101517.84;5056973;28;20551;-86
2021/08/30 01:52:18;;;;;;;25.48;16.48;;;;;;;14.52;100.00;101505.72;5057027;28;20075;-86
2021/08/30 01:54:44;;;;;;;30.33;17.65;;;;;;;14.60;100.00;101515.66;5074272;28;20032;-86
2021/08/30 01:57:18;;;;;;;26.13;17.30;;;;;;;14.48;100.00;101509.75;5074519;28;20059;-85
2021/08/30 02:02:29;;;;;;;;;;;;;;;14.48;100.00;101522.34;5094302;28;20859;-84
2021/08/30 02:04:55;;;;;;;;;;;;;;;14.45;100.00;101522.72;5059366;28;19962;-85
2021/08/30 02:07:20;;;;;;;27.77;16.70;;;;;;;14.40;100.00;101525.91;5075766;28;20000;-85
2021/08/30 02:09:46;;;;;;;24.07;15.37;;;;;;;14.43;100.00;101516.66;5059232;28;20036;-86
2021/08/30 02:12:11;;;;;;;43.37;17.43;;;;;;;14.41;100.00;101515.97;5060801;28;20319;-82
2021/08/30 02:14:37;;;;;;;24.37;16.40;;;;;;;14.32;100.00;101507.91;5079585;28;20024;-83
2021/08/30 02:17:09;;;;;;;28.20;16.97;;;;;;;14.40;100.00;101515.16;5079566;28;20024;-82
2021/08/30 02:20:05;;;;;;;31.85;17.15;;;;;;;14.39;100.00;101515.31;5078836;28;20764;-87
2021/08/30 02:22:38;;;;;;;24.63;16.02;;;;;;;14.40;100.00;101523.22;5055674;28;20090;-86
2021/08/30 02:25:09;;;;;;;25.52;17.48;;;;;;;14.31;100.00;101510.78;5058020;28;20036;-85
2021/08/30 02:27:43;;;;;;;25.92;18.10;;;;;;;14.31;100.00;101517.00;5062211;28;20028;-85
2021/08/30 02:30:34;;;;;;;26.33;17.13;;;;;;;14.27;100.00;101504.91;5056140;28;20032;-86
2021/08/30 02:33:06;;;;;;;26.35;18.25;;;;;;;14.29;100.00;101513.63;5048760;28;20051;-86
2021/08/30 02:35:35;;;;;;;33.20;18.15;;;;;;;14.34;100.00;101519.34;5055855;28;20032;-87
2021/08/30 02:38:02;;;;;;;25.20;17.83;;;;;;;14.29;100.00;101507.44;5055686;28;20524;-87
2021/08/30 02:40:28;;;;;;;30.05;18.15;;;;;;;14.38;100.00;101513.66;5055882;28;20070;-87
2021/08/30 02:43:00;;;;;;;30.17;20.13;;;;;;;14.41;100.00;101505.25;5055728;28;20040;-86
2021/08/30 02:45:26;;;;;;;32.58;19.67;;;;;;;14.40;100.00;101508.91;5055320;28;20040;-86
2021/08/30 02:47:54;;;;;;;29.17;18.98;;;;;;;14.39;100.00;101507.25;5055346;28;20020;-87
2021/08/30 02:50:20;;;;;;;27.08;19.13;;;;;;;14.40;100.00;101506.22;5092419;28;20032;-86
2021/08/30 02:52:48;;;;;;;27.17;18.17;;;;;;;14.35;100.00;101496.84;5076056;28;20036;-87
2021/08/30 02:55:17;;;;;;;29.80;17.58;;;;;;;14.43;100.00;101503.22;5076520;28;20031;-86
2021/08/30 02:57:48;;;;;;;30.00;18.52;;;;;;;14.49;100.00;101505.22;5073362;28;20474;-86
2021/08/30 03:00:15;;;;;;;30.42;18.30;;;;;;;14.51;100.00;101503.19;5056572;28;20043;-84
2021/08/30 03:02:41;;;;;;;;;;;;;;;14.50;100.00;101509.59;5056999;28;20114;-87
2021/08/30 03:05:06;;;;;;;;;;;;;;;14.50;100.00;101509.59;5056209;28;19958;-86
2021/08/30 03:07:33;;;;;;;25.43;16.50;;;;;;;14.41;100.00;101500.69;5055922;28;19912;-86
2021/08/30 03:09:59;;;;;;;24.02;16.00;;;;;;;14.40;100.00;101503.53;5055886;28;20032;-86
2021/08/30 03:12:32;;;;;;;27.05;17.25;;;;;;;14.40;100.00;101506.22;5055912;28;20039;-86
2021/08/30 03:15:06;;;;;;;28.63;16.92;;;;;;;14.40;100.00;101496.34;5072350;28;20036;-86
2021/08/30 03:17:33;;;;;;;27.90;17.45;;;;;;;14.49;100.00;101507.91;5055502;28;20496;-87
2021/08/30 03:19:59;;;;;;;;;;;;;;;14.54;100.00;101517.19;5056306;28;20036;-87
2021/08/30 03:22:26;;;;;;;22.70;15.75;;;;;;;14.55;100.00;101512.63;5055742;28;19916;-85
2021/08/30 03:24:53;;;;;;;27.80;15.52;;;;;;;14.56;100.00;101509.78;5055883;28;20035;-88
2021/08/30 03:27:20;;;;;;;27.67;17.58;;;;;;;14.60;100.00;101514.81;5055573;28;20481;-87
2021/08/30 03:29:46;;;;;;;22.88;16.20;;;;;;;14.59;100.00;101513.16;5055787;28;20409;-85
2021/08/30 03:32:13;;;;;;;;;;;;;;;14.66;100.00;101514.97;5072700;28;20043;-86
2021/08/30 03:34:40;;;;;;;28.23;16.05;;;;;;;14.64;100.00;101510.78;5056031;28;19908;-86
2021/08/30 03:37:08;;;;;;;21.67;14.57;;;;;;;14.71;100.00;101514.47;5055569;28;20469;-84
2021/08/30 03:39:34;;;;;;;21.55;15.07;;;;;;;14.72;100.00;101514.28;5055791;28;20538;-86
2021/08/30 03:42:02;;;;;;;20.20;15.05;;;;;;;14.78;100.00;101524.34;5072740;28;20055;-87
2021/08/30 03:44:29;;;;;;;20.10;15.40;;;;;;;14.74;100.00;101512.25;5055157;28;20036;-86
2021/08/30 03:46:56;;;;;;;23.02;15.02;;;;;;;14.72;100.00;101508.91;5055489;28;20052;-83
2021/08/30 03:49:25;;;;;;;22.52;15.50;;;;;;;14.70;100.00;101502.03;5055684;28;20541;-86
2021/08/30 03:51:52;;;;;;;21.40;14.98;;;;;;;14.73;100.00;101505.22;5054511;28;20044;-85
2021/08/30 03:54:18;;;;;;;22.55;14.95;;;;;;;14.76;100.00;101518.31;5055330;28;20405;-87
2021/08/30 03:56:45;;;;;;;22.38;13.30;;;;;;;14.76;100.00;101515.63;5057460;28;20036;-87
2021/08/30 03:59:12;;;;;;;20.15;14.65;;;;;;;14.76;100.00;101507.56;5075611;28;20130;-85
2021/08/30 04:01:42;;;;;;;22.08;14.23;;;;;;;14.88;100.00;101516.09;5058957;28;20047;-86
2021/08/30 04:04:14;;;;;;;26.52;14.75;;;;;;;14.87;100.00;101505.53;5093348;28;20067;-87
2021/08/30 04:06:42;;;;;;;26.88;14.75;;;;;;;14.83;100.00;101510.41;5058824;28;20032;-86
2021/08/30 04:09:08;;;;;;;20.33;13.70;;;;;;;14.84;100.00;101506.69;5059465;28;20384;-86
2021/08/30 04:11:34;;;;;;;23.17;13.40;;;;;;;14.86;100.00;101511.91;5058597;28;20089;-85
2021/08/30 04:13:59;;;;;;;20.67;13.43;;;;;;;14.86;100.00;101520.81;5058645;28;20039;-86
2021/08/30 04:16:24;;;;;;;20.30;13.27;;;;;;;14.89;100.00;101520.47;5058978;28;20054;-85
2021/08/30 04:18:50;;;;;;;18.67;13.70;;;;;;;14.93;100.00;101523.66;5075727;28;20044;-86
2021/08/30 04:21:15;;;;;;;19.27;12.73;;;;;;;14.93;100.00;101535.22;5058846;28;20046;-86
2021/08/30 04:23:41;;;;;;;21.73;13.10;;;;;;;14.96;100.00;101525.97;5058521;28;20111;-86
2021/08/30 04:26:06;;;;;;;18.87;12.33;;;;;;;14.92;100.00;101538.13;5058087;28;20524;-86
2021/08/30 04:28:31;;;;;;;17.97;12.73;;;;;;;14.96;100.00;101534.03;5062846;28;20561;-85
2021/08/30 04:30:57;;;;;;;17.40;11.57;;;;;;;14.98;100.00;101534.72;5062232;28;20028;-87
2021/08/30 04:33:22;;;;;;;23.77;13.80;;;;;;;14.95;100.00;101532.38;5058541;28;20542;-86
2021/08/30 04:35:48;;;;;;;20.75;12.60;;;;;;;14.95;100.00;101532.38;5092701;28;20488;-84
2021/08/30 04:38:14;;;;;;;17.98;13.38;;;;;;;15.00;100.00;101538.06;5058020;28;20039;-86
2021/08/30 04:40:40;;;;;;;17.77;12.47;;;;;;;14.97;100.00;101541.13;5074726;28;20045;-86
2021/08/30 04:43:11;;;;;;;21.90;12.90;;;;;;;15.01;100.00;101529.00;5057887;28;20028;-88
2021/08/30 04:45:37;;;;;;;20.80;12.90;;;;;;;15.01;100.00;101537.09;5057926;28;20075;-87
2021/08/30 04:48:04;;;;;;;22.17;12.75;;;;;;;15.06;100.00;101536.56;5058055;28;20074;-86
2021/08/30 04:50:29;;;;;;;20.95;12.60;;;;;;;15.03;100.00;101532.38;5074452;28;20040;-84
2021/08/30 04:52:55;;;;;;;17.57;12.30;;;;;;;15.02;100.00;101535.22;5057362;28;20036;-85
2021/08/30 04:55:21;;;;;;;18.43;13.43;;;;;;;15.03;100.00;101539.56;5057538;28;20032;-86
2021/08/30 04:57:46;;;;;;;19.65;11.93;;;;;;;15.03;100.00;101543.13;5057610;28;20032;-85
2021/08/30 05:00:13;;;;;;;16.90;11.57;;;;;;;15.10;100.00;101544.13;5074233;28;20409;-88
2021/08/30 05:02:38;;;;;;;27.90;11.65;;;;;;;15.16;100.00;101539.88;5057468;28;20034;-86
2021/08/30 05:05:04;;;;;;;16.27;11.30;;;;;;;15.18;100.00;101545.94;5057604;28;20114;-87
2021/08/30 05:07:29;;;;;;;16.38;11.10;;;;;;;15.18;100.00;101544.06;5057469;28;20051;-85
2021/08/30 05:09:55;;;;;;;20.93;12.37;;;;;;;15.22;100.00;101547.28;5057034;28;20071;-84
2021/08/30 05:12:25;;;;;;;16.97;11.57;;;;;;;15.22;100.00;101551.78;5057513;28;20431;-86
2021/08/30 05:14:50;;;;;;;16.27;10.73;;;;;;;15.29;100.00;101556.31;5073997;28;20058;-86
2021/08/30 05:17:15;;;;;;;16.23;11.17;;;;;;;15.30;100.00;101554.47;5057225;28;20016;-86
2021/08/30 05:19:41;;;;;;;19.37;11.63;;;;;;;15.28;100.00;101556.50;5057413;28;20036;-85
2021/08/30 05:22:06;;;;;;;16.70;10.97;;;;;;;15.33;100.00;101559.50;5056991;28;20035;-86
2021/08/30 05:24:31;;;;;;;15.43;10.77;;;;;;;15.32;100.00;101550.59;5073728;28;20031;-87
2021/08/30 05:26:57;;;;;;;16.27;9.87;;;;;;;15.34;100.00;101555.81;5057319;28;20475;-87
2021/08/30 05:29:22;;;;;;;13.97;10.70;;;;;;;15.37;100.00;101566.22;5056891;28;20615;-87
2021/08/30 05:31:48;;;;;;;18.97;10.93;;;;;;;15.36;100.00;101565.38;5073415;28;20038;-87
2021/08/30 05:34:13;;;;;;;14.33;10.37;;;;;;;15.38;100.00;101563.34;5056780;28;20043;-86
2021/08/30 05:36:38;;;;;;;20.23;11.70;;;;;;;15.41;100.00;101571.06;5056257;28;20036;-86
2021/08/30 05:39:04;;;;;;;16.70;10.90;;;;;;;15.41;100.00;101564.84;5056492;28;20043;-83
2021/08/30 05:41:29;;;;;;;16.97;10.23;;;;;;;15.48;100.00;101568.53;5056662;28;20485;-86
2021/08/30 05:43:54;;;;;;;13.10;10.13;;;;;;;15.53;100.00;101570.69;5073386;28;20443;-86
2021/08/30 05:46:20;;;;;;;16.43;10.00;;;;;;;15.50;100.00;101560.25;5056400;28;20028;-86
2021/08/30 05:48:47;;;;;;;14.77;9.43;;;;;;;15.69;100.00;101577.84;5056733;28;20139;-86
2021/08/30 05:51:13;;;;;;;17.30;9.82;;;;;;;15.66;100.00;101576.31;5055897;28;20508;-87
2021/08/30 05:53:39;;;;;;;15.90;10.70;;;;;;;15.79;100.00;101582.03;5056760;28;20016;-87
2021/08/30 05:56:05;;;;;;;13.43;9.38;;;;;;;15.75;100.00;101563.69;5056092;28;20036;-87
2021/08/30 05:58:31;;;;;;;12.38;8.93;;;;;;;15.84;100.00;101573.41;5090873;28;20051;-84
2021/08/30 06:00:56;;;;;;;16.60;9.53;;;;;;;15.81;100.00;101574.59;5056642;28;20036;-86
2021/08/30 06:03:21;;;;;;;17.47;9.87;;;;;;;15.85;100.00;101564.34;5056123;28;20036;-86
2021/08/30 06:05:46;;;;;;;13.63;9.30;;;;;;;15.89;100.00;101570.19;5072441;28;20071;-87
2021/08/30 06:08:14;;;;;;;15.20;8.87;;;;;;;15.88;100.00;101574.75;5056337;28;20166;-87
2021/08/30 06:10:40;;;;;;;14.60;8.55;;;;;;;15.84;100.00;101570.72;5056453;28;20032;-86
2021/08/30 06:13:06;;;;;;;12.30;9.10;;;;;;;15.85;100.00;101567.03;5072861;28;20076;-85
2021/08/30 06:15:31;;;;;;;12.07;8.75;;;;;;;15.79;100.00;101565.03;5073182;28;20032;-86
2021/08/30 06:17:56;;;;;;;11.87;8.50;;;;;;;15.93;100.00;101566.13;5055786;28;20040;-86
2021/08/30 06:20:22;;;;;;;13.50;8.43;;;;;;;16.47;100.00;101563.38;5073037;28;20122;-87
2021/08/30 06:22:48;;;;;;;9.77;7.57;;;;;;;16.82;96.85;101566.47;5055685;28;20043;-87
2021/08/30 06:25:13;;;;;;;14.00;7.70;;;;;;;16.57;95.94;101571.22;5056176;28;20044;-86
2021/08/30 06:27:39;;;;;;;14.77;8.03;;;;;;;16.41;95.79;101567.66;5055792;28;20119;-84
2021/08/30 06:30:05;;;;;;;12.97;8.03;;;;;;;16.27;95.94;101567.56;5056214;28;20020;-86
2021/08/30 06:32:30;;;;;;;15.25;7.88;;;;;;;16.33;96.98;101572.25;5074618;28;20132;-85
2021/08/30 06:34:56;;;;;;;10.27;7.87;;;;;;;16.26;96.51;101577.53;5062353;28;20488;-85
2021/08/30 06:37:21;;;;;;;13.03;8.03;;;;;;;16.07;96.70;101578.84;5058071;28;20026;-86
2021/08/30 06:39:46;;;;;;;18.30;8.83;;;;;;;16.08;97.70;101569.72;5053124;28;20036;-87
2021/08/30 06:42:19;;;;;;;12.95;8.23;;;;;;;15.98;97.98;101578.03;5070790;28;20042;-83
2021/08/30 06:44:45;;;;;;;9.57;7.17;;;;;;;15.94;97.17;101574.00;5055836;28;20606;-87
2021/08/30 06:47:10;;;;;;;11.27;7.90;;;;;;;15.90;97.47;101572.72;5039132;28;20085;-88
2021/08/30 06:49:36;;;;;;;10.73;7.70;;;;;;;15.88;97.40;101579.31;5072207;28;20504;-86
2021/08/30 06:52:03;;;;;;;14.03;8.37;;;;;;;15.86;98.03;101566.00;5055209;28;20097;-89
2021/08/30 06:54:33;;;;;;;13.68;7.85;;;;;;;15.93;97.61;101568.81;5090153;28;20091;-87
2021/08/30 06:56:58;;;;;;;12.27;8.00;;;;;;;15.92;97.04;101564.44;5055451;28;20201;-86
2021/08/30 06:59:24;;;;;;;14.00;7.60;;;;;;;16.02;96.67;101573.16;5055594;28;20036;-87
2021/08/30 07:01:49;;;;;;;12.97;9.27;;;;;;;16.10;96.41;101580.34;5055520;28;20082;-86
2021/08/30 07:04:14;;;;;;;10.97;8.17;;;;;;;16.68;95.66;101571.59;5055244;28;20043;-84
2021/08/30 07:06:40;;;;;;;12.67;7.73;;;;;;;16.45;93.50;101579.72;5055391;28;20024;-87
2021/08/30 07:09:05;;;;;;;10.48;7.45;;;;;;;16.42;94.06;101580.09;5072581;28;20036;-87
2021/08/30 07:11:31;;;;;;;9.67;6.63;;;;;;;16.37;94.46;101577.09;5055355;28;20459;-87
2021/08/30 07:13:58;;;;;;;10.55;6.90;;;;;;;16.63;92.88;101579.41;5055769;28;20035;-87
2021/08/30 07:16:23;;;;;;;11.15;6.75;;;;;;;16.53;92.05;101577.97;5071683;28;20044;-87
2021/08/30 07:18:48;;;;;;;8.87;7.37;;;;;;;16.76;92.49;101565.28;5105962;28;20020;-83
2021/08/30 07:21:20;;;;;;;11.40;7.73;;;;;;;17.07;89.90;101561.66;5078482;28;20059;-83
2021/08/30 07:23:47;;;;;;;11.55;7.05;;;;;;;17.35;89.45;101575.34;5086247;28;20135;-87
2021/08/30 07:26:12;;;;;;;12.63;6.47;;;;;;;17.01;89.59;101555.13;5055074;28;20123;-86
2021/08/30 07:28:38;;;;;;;12.03;6.50;;;;;;;17.00;90.26;101568.81;5055621;28;20032;-87
2021/08/30 07:31:03;;;;;;;13.50;6.73;;;;;;;16.64;90.01;101564.06;5057159;28;20048;-86
2021/08/30 07:33:28;;;;;;;12.57;7.43;;;;;;;16.71;90.20;101573.09;5060402;28;20043;-87
2021/08/30 07:35:54;;;;;;;8.40;6.77;;;;;;;16.64;90.93;101582.94;5058773;28;20500;-87
2021/08/30 07:38:20;;;;;;;9.07;6.57;;;;;;;16.58;91.29;101587.22;5059265;28;20496;-87
2021/08/30 07:40:46;;;;;;;;;;;;;;;16.61;91.45;101583.31;5076334;28;20036;-87
2021/08/30 07:43:12;;;;;;;;;;;;;;;16.69;91.32;101588.63;5059415;28;20416;-87
2021/08/30 07:45:37;;;;;;;8.90;6.25;;;;;;;16.56;91.21;101588.41;5058875;28;19920;-86
2021/08/30 07:48:03;;;;;;;12.80;7.03;;;;;;;16.68;91.89;101587.78;5058729;28;20055;-87
2021/08/30 07:50:29;;;;;;;13.63;7.03;;;;;;;16.76;91.36;101577.94;5058905;28;20069;-89
2021/08/30 07:52:54;;;;;;;17.57;7.80;;;;;;;16.93;90.92;101597.53;5058675;28;20401;-86
2021/08/30 07:55:21;;;;;;;11.27;6.83;;;;;;;16.87;90.03;101591.84;5058666;28;20044;-86
2021/08/30 07:57:47;;;;;;;10.88;7.10;;;;;;;16.85;90.70;101591.19;5042327;28;20080;-87
2021/08/30 08:00:13;;;;;;;11.63;6.97;;;;;;;16.92;90.84;101579.69;5058918;28;20031;-86
2021/08/30 08:02:41;;;;;;;8.50;6.70;;;;;;;16.97;89.92;101585.34;5058486;28;20715;-86
2021/08/30 08:05:07;;;;;;;9.95;6.35;;;;;;;16.87;88.91;101589.16;5058562;28;20020;-86
2021/08/30 08:07:33;;;;;;;10.63;6.40;;;;;;;16.81;88.03;101608.78;5058679;28;20397;-87
2021/08/30 08:10:06;;;;;;;13.32;7.45;;;;;;;16.80;87.93;101614.34;5058752;28;20047;-86
2021/08/30 08:12:32;;;;;;;10.02;7.32;;;;;;;16.75;89.16;101605.94;5075325;28;20028;-86
2021/08/30 08:14:59;;;;;;;8.77;6.93;;;;;;;16.72;89.77;101620.63;5074838;28;20569;-86
2021/08/30 08:17:25;;;;;;;11.52;7.57;;;;;;;16.86;88.92;101616.31;5058139;28;20087;-85
2021/08/30 08:19:50;;;;;;;8.90;7.05;;;;;;;16.97;88.69;101618.56;5058589;28;20036;-86
2021/08/30 08:22:15;;;;;;;9.13;7.00;;;;;;;17.04;86.94;101613.25;5058512;28;20032;-87
2021/08/30 08:24:41;;;;;;;8.97;6.47;;;;;;;17.21;86.81;101620.19;5074759;28;20036;-87
2021/08/30 08:27:06;;;;;;;11.87;6.60;;;;;;;17.07;85.36;101596.72;5058449;28;20118;-88
2021/08/30 08:29:32;;;;;;;12.93;7.03;;;;;;;17.24;86.22;101606.31;5058039;28;20024;-87
2021/08/30 08:31:57;;;;;;;10.37;6.90;;;;;;;17.20;86.75;101618.50;5062354;28;20048;-86
2021/08/30 08:34:23;;;;;;;12.97;6.57;;;;;;;17.10;85.70;101620.63;5061794;28;20032;-85
2021/08/30 08:36:48;;;;;;;10.02;7.00;;;;;;;17.03;87.56;101627.78;5062980;28;20137;-87
2021/08/30 08:39:14;;;;;;;9.50;7.05;;;;;;;16.66;88.01;101622.16;5058165;28;20648;-85
2021/08/30 08:41:39;;;;;;;10.77;8.00;;;;;;;16.67;88.91;101633.81;5057677;28;20038;-82
2021/08/30 08:44:07;;;;;;;11.83;7.00;;;;;;;16.60;87.32;101624.75;5076651;28;20073;-86
2021/08/30 08:46:38;;;;;;;11.18;7.10;;;;;;;16.44;88.67;101629.25;5071767;28;20138;-88
2021/08/30 08:49:06;;;;;;;11.70;7.88;;;;;;;16.34;89.48;101623.28;5069110;28;20670;-86
2021/08/30 08:51:32;;;;;;;9.80;6.88;;;;;;;15.98;91.32;101607.66;5058630;28;20028;-87
2021/08/30 08:53:58;;;;;;;10.57;6.55;;;;;;;16.11;91.38;101638.56;5074293;28;20036;-85
2021/08/30 08:56:40;;;;;;;11.23;7.10;;;;;;;15.95;92.40;101613.41;5057359;28;20508;-87
2021/08/30 08:59:06;;;;;;;13.93;8.07;;;;;;;16.00;93.14;101629.88;5057826;28;20046;-86
2021/08/30 09:01:35;;;;;;;12.43;7.67;;;;;;;15.97;92.81;101643.72;5070138;28;20497;-86
2021/08/30 09:07:54;;;;;;;11.57;7.22;;;;;;;16.11;93.66;101647.50;5049589;28;20585;-88
2021/08/30 09:14:13;;;;;;;11.75;7.60;;;;;;;16.65;91.94;101657.44;5113129;28;20105;-86
2021/08/30 09:16:38;;;;;;;9.60;7.47;;;;;;;16.54;90.95;101652.44;5077158;28;20557;-87
2021/08/30 09:19:51;;;;;;;13.17;7.27;;;;;;;16.65;89.96;101657.44;5076957;28;20043;-88
2021/08/30 09:22:50;;;;;;;9.30;7.20;;;;;;;16.86;88.94;101652.22;5112515;28;20087;-86
2021/08/30 09:25:20;;;;;;;11.90;7.50;;;;;;;16.80;88.97;101658.31;5094963;28;20039;-86
2021/08/30 09:27:50;;;;;;;13.48;7.97;;;;;;;16.67;89.03;101658.09;5094558;28;20051;-83
2021/08/30 09:30:17;;;;;;;12.23;8.15;;;;;;;16.60;89.11;101654.41;5094872;28;20024;-86
2021/08/30 09:32:48;;;;;;;9.18;7.32;;;;;;;16.58;90.03;101656.47;5078013;28;20092;-87
2021/08/30 09:35:14;;;;;;;9.98;7.22;;;;;;;16.42;88.88;101668.19;5078442;28;20031;-85
2021/08/30 09:37:41;;;;;;;11.57;7.10;;;;;;;16.25;89.52;101651.31;5078192;28;20027;-88
2021/08/30 09:40:09;;;;;;;11.82;7.78;;;;;;;16.02;90.12;101656.63;5077628;28;20070;-86
2021/08/30 09:42:35;;;;;;;14.05;9.13;;;;;;;16.02;91.14;101653.94;5095486;28;20103;-87
2021/08/30 09:45:15;;;;;;;12.65;8.65;;;;;;;16.15;90.12;101656.06;5095507;28;20066;-86
2021/08/30 09:48:00;;;;;;;11.13;8.52;;;;;;;16.23;90.65;101656.84;5078174;28;20046;-86
2021/08/30 09:50:28;;;;;;;18.02;8.35;;;;;;;16.53;89.69;101650.75;5095339;28;20092;-86
2021/08/30 09:52:54;;;;;;;14.70;8.52;;;;;;;17.23;88.73;101652.38;5074036;28;20023;-86
2021/08/30 09:55:21;;;;;;;;;;;;;;;18.52;83.94;101661.72;5058526;28;20676;-86
2021/08/30 09:57:50;;;;;;;9.38;6.85;;;;;;;19.57;79.30;101646.53;5074819;28;19951;-86
2021/08/30 10:00:17;;;;;;;11.73;7.05;;;;;;;19.58;78.24;101644.66;5074930;28;20019;-87
2021/08/30 10:02:50;;;;;;;12.05;7.40;;;;;;;20.01;77.35;101641.75;5058416;28;20051;-88
2021/08/30 10:05:16;;;;;;;12.48;6.95;;;;;;;19.65;78.19;101639.28;5075170;28;20639;-88
2021/08/30 10:07:43;;;;;;;;;;;;;;;19.14;78.24;101643.13;5057906;28;20416;-86
2021/08/30 10:10:09;;;;;;;8.68;7.18;;;;;;;18.58;80.03;101632.22;5073987;28;19912;-86
2021/08/30 10:12:35;;;;;;;15.35;7.85;;;;;;;18.38;81.85;101638.28;5092389;28;20131;-85
2021/08/30 10:15:00;;;;;;;10.27;7.88;;;;;;;18.09;82.37;101629.22;5057876;28;20435;-85
2021/08/30 10:17:26;;;;;;;11.50;7.50;;;;;;;18.46;81.85;101638.16;5074348;28;20125;-85
2021/08/30 10:19:59;;;;;;;15.37;7.87;;;;;;;19.16;79.40;101635.66;5074628;28;20039;-85
2021/08/30 10:22:25;;;;;;;13.90;7.88;;;;;;;19.15;79.36;101634.81;5075107;28;20040;-85
2021/08/30 10:24:52;;;;;;;11.10;7.25;;;;;;;18.69;79.42;101640.66;5092748;28;20101;-86
2021/08/30 10:27:32;;;;;;;11.13;7.32;;;;;;;18.24;81.17;101647.25;5075757;28;20089;-86
2021/08/30 10:30:08;;;;;;;10.23;6.78;;;;;;;17.73;83.35;101632.72;5075106;28;20024;-85
2021/08/30 10:32:54;;;;;;;11.02;7.45;;;;;;;17.80;83.90;101651.72;5075147;28;20035;-88
2021/08/30 10:35:24;;;;;;;10.23;7.45;;;;;;;17.85;83.32;101653.91;5077451;28;20040;-86
2021/08/30 10:37:52;;;;;;;9.70;6.68;;;;;;;17.71;83.12;101642.88;5059295;28;20020;-88
2021/08/30 10:40:20;;;;;;;8.00;6.50;;;;;;;17.85;83.38;101637.69;5077273;28;20093;-86
2021/08/30 10:42:59;;;;;;;11.25;7.32;;;;;;;17.76;84.18;101649.59;5058110;28;20032;-87
2021/08/30 10:45:37;;;;;;;9.88;7.20;;;;;;;17.79;83.58;101638.41;5092579;28;20580;-86
2021/08/30 10:48:05;;;;;;;15.07;7.68;;;;;;;17.37;84.79;101645.31;5056403;28;20115;-86
2021/08/30 10:50:31;;;;;;;14.55;7.70;;;;;;;17.16;85.39;101648.72;5052621;28;20075;-86
2021/08/30 10:53:09;;;;;;;12.70;8.00;;;;;;;17.12;86.30;101656.38;5055990;28;20085;-86
2021/08/30 10:55:37;;;;;;;13.43;7.20;;;;;;;17.02;86.57;101653.94;5055274;28;20040;-87
2021/08/30 10:58:11;;;;;;;11.52;7.88;;;;;;;17.16;86.31;101652.28;5089495;28;20032;-86
2021/08/30 11:00:36;;;;;;;11.63;7.60;;;;;;;16.95;87.06;101657.53;5072591;28;20032;-86
2021/08/30 11:03:02;;;;;;;9.00;7.57;;;;;;;17.01;87.65;101662.19;5055855;28;20532;-86
2021/08/30 11:05:29;;;;;;;9.60;7.15;;;;;;;17.21;87.15;101657.13;5074926;28;20416;-86
2021/08/30 11:07:55;;;;;;;11.32;7.53;;;;;;;17.69;86.03;101655.72;5076604;28;20669;-86
2021/08/30 11:10:23;;;;;;;11.52;7.32;;;;;;;17.77;84.04;101657.50;5077009;28;20049;-85
2021/08/30 11:12:49;;;;;;;9.77;7.43;;;;;;;17.69;84.09;101650.31;5082284;28;20040;-85
2021/08/30 11:15:15;;;;;;;11.82;7.57;;;;;;;18.03;83.40;101667.00;5082940;28;20043;-85
2021/08/30 11:17:40;;;;;;;11.10;7.20;;;;;;;18.35;82.55;101660.28;5077006;28;20110;-86
2021/08/30 11:20:13;;;;;;;9.97;6.97;;;;;;;18.64;80.39;101663.94;5076619;28;20126;-86
2021/08/30 11:22:38;;;;;;;7.65;6.43;;;;;;;18.36;80.57;101661.97;5077317;28;20036;-86
2021/08/30 11:25:05;;;;;;;10.13;7.47;;;;;;;18.39;81.00;101667.00;5076869;28;20420;-86